UAE249 SBGL-SAEZ
Flight info
| Callsign | UAE249 |
|---|---|
| Flight time | 2h 52m |
| Altitude | 38000 |
| Route | BITAK UN857 NELOX UM534 DADUT UN741 PAPIX PAPIX6A |
| Aircraft | B77W/H-SDE1E2E3FGHIJ2J3J4J5M1RWXY/LB1D1 |
Departure
| Time | 2026-05-05 19:33 |
|---|---|
| Airport | Rio Galeão – Tom Jobim International Airport (SBGL) |
Arrival
| Time | 2026-05-05 22:26 |
|---|---|
| Airport | Ezeiza International Airport - Ministro Pistarini (SAEZ) |
| Time | Latitude | Longitude | Altitude | Speed | Heading |
|---|---|---|---|---|---|
| 2026-05-05 18:55 | -22.81899 | -43.24282 | 26 ft | 0 kts | 304° |
| 2026-05-05 19:23 | -22.81913 | -43.24263 | 25 ft | 4 kts | 307° |
| 2026-05-05 19:23 | -22.81929 | -43.24240 | 25 ft | 4 kts | 307° |
| 2026-05-05 19:23 | -22.81944 | -43.24219 | 25 ft | 4 kts | 284° |
| 2026-05-05 19:23 | -22.81939 | -43.24202 | 25 ft | 4 kts | 206° |
| 2026-05-05 19:24 | -22.81915 | -43.24190 | 25 ft | 3 kts | 213° |
| 2026-05-05 19:24 | -22.81912 | -43.24187 | 25 ft | 0 kts | 216° |
| 2026-05-05 19:26 | -22.81950 | -43.24217 | 24 ft | 11 kts | 216° |
| 2026-05-05 19:26 | -22.82011 | -43.24265 | 26 ft | 11 kts | 216° |
| 2026-05-05 19:26 | -22.82072 | -43.24311 | 29 ft | 11 kts | 216° |
| 2026-05-05 19:27 | -22.82083 | -43.24366 | 32 ft | 8 kts | 300° |
| 2026-05-05 19:27 | -22.82049 | -43.24420 | 32 ft | 9 kts | 304° |
| 2026-05-05 19:27 | -22.82009 | -43.24481 | 29 ft | 11 kts | 306° |
| 2026-05-05 19:27 | -22.81965 | -43.24548 | 31 ft | 11 kts | 304° |
| 2026-05-05 19:28 | -22.81938 | -43.24624 | 30 ft | 11 kts | 270° |
| 2026-05-05 19:28 | -22.81925 | -43.24706 | 26 ft | 11 kts | 294° |
| 2026-05-05 19:28 | -22.81881 | -43.24778 | 31 ft | 12 kts | 304° |
| 2026-05-05 19:28 | -22.81835 | -43.24849 | 30 ft | 12 kts | 306° |
| 2026-05-05 19:29 | -22.81784 | -43.24924 | 29 ft | 17 kts | 306° |
| 2026-05-05 19:29 | -22.81675 | -43.25088 | 30 ft | 32 kts | 305° |
| 2026-05-05 19:29 | -22.81547 | -43.25282 | 29 ft | 31 kts | 306° |
| 2026-05-05 19:29 | -22.81420 | -43.25471 | 29 ft | 30 kts | 306° |
| 2026-05-05 19:30 | -22.81299 | -43.25657 | 29 ft | 30 kts | 304° |
| 2026-05-05 19:30 | -22.81185 | -43.25833 | 26 ft | 26 kts | 306° |
| 2026-05-05 19:30 | -22.81053 | -43.25901 | 27 ft | 22 kts | 28° |
| 2026-05-05 19:30 | -22.80929 | -43.25809 | 28 ft | 22 kts | 36° |
| 2026-05-05 19:31 | -22.80865 | -43.25759 | 28 ft | 22 kts | 36° |
| 2026-05-05 19:31 | -22.80788 | -43.25700 | 32 ft | 22 kts | 35° |
| 2026-05-05 19:31 | -22.80766 | -43.25683 | 32 ft | 22 kts | 35° |
| 2026-05-05 19:32 | -22.80659 | -43.25602 | 34 ft | 22 kts | 35° |
| 2026-05-05 19:32 | -22.80544 | -43.25510 | 35 ft | 20 kts | 39° |
| 2026-05-05 19:32 | -22.80424 | -43.25449 | 34 ft | 20 kts | 345° |
| 2026-05-05 19:32 | -22.80296 | -43.25510 | 31 ft | 21 kts | 358° |
| 2026-05-05 19:33 | -22.80151 | -43.25368 | 30 ft | 46 kts | 71° |
| 2026-05-05 19:33 | -22.79971 | -43.24674 | 37 ft | 148 kts | 74° |
| 2026-05-05 19:33 | -22.79634 | -43.23363 | 524 ft | 196 kts | 77° |
| 2026-05-05 19:33 | -22.79280 | -43.21899 | 1565 ft | 206 kts | 77° |
| 2026-05-05 19:34 | -22.78936 | -43.20387 | 2412 ft | 218 kts | 76° |
| 2026-05-05 19:34 | -22.78564 | -43.18684 | 2993 ft | 240 kts | 76° |
| 2026-05-05 19:34 | -22.78177 | -43.16885 | 3908 ft | 248 kts | 77° |
| 2026-05-05 19:35 | -22.77401 | -43.13239 | 5994 ft | 253 kts | 78° |
| 2026-05-05 19:35 | -22.77006 | -43.11370 | 6980 ft | 256 kts | 78° |
| 2026-05-05 19:35 | -22.76605 | -43.09472 | 7917 ft | 260 kts | 79° |
| 2026-05-05 19:35 | -22.76198 | -43.07548 | 8898 ft | 263 kts | 79° |
| 2026-05-05 19:36 | -22.75798 | -43.05605 | 9848 ft | 264 kts | 83° |
| 2026-05-05 19:36 | -22.75915 | -43.03624 | 10588 ft | 267 kts | 112° |
| 2026-05-05 19:36 | -22.76889 | -43.01932 | 11416 ft | 268 kts | 136° |
| 2026-05-05 19:36 | -22.78396 | -43.00746 | 12247 ft | 269 kts | 150° |
| 2026-05-05 19:37 | -22.80013 | -42.99730 | 13077 ft | 275 kts | 150° |
| 2026-05-05 19:37 | -22.81700 | -42.98673 | 14001 ft | 279 kts | 149° |
| 2026-05-05 19:37 | -22.83397 | -42.97677 | 14716 ft | 282 kts | 160° |
| 2026-05-05 19:37 | -22.85352 | -42.97395 | 15460 ft | 289 kts | 187° |
| 2026-05-05 19:38 | -22.87306 | -42.98096 | 15973 ft | 308 kts | 210° |
| 2026-05-05 19:38 | -22.89114 | -42.99533 | 16168 ft | 336 kts | 217° |
| 2026-05-05 19:38 | -22.90978 | -43.01186 | 16368 ft | 364 kts | 218° |
| 2026-05-05 19:38 | -22.93011 | -43.03004 | 16582 ft | 390 kts | 218° |
| 2026-05-05 19:39 | -22.95151 | -43.04892 | 17182 ft | 403 kts | 218° |
| 2026-05-05 19:39 | -22.97354 | -43.06806 | 17984 ft | 408 kts | 217° |
| 2026-05-05 19:39 | -22.99589 | -43.08735 | 18795 ft | 413 kts | 217° |
| 2026-05-05 19:39 | -23.01842 | -43.10686 | 19557 ft | 416 kts | 218° |
| 2026-05-05 19:40 | -23.04108 | -43.12664 | 20337 ft | 419 kts | 218° |
| 2026-05-05 19:40 | -23.06392 | -43.14665 | 21144 ft | 422 kts | 218° |
| 2026-05-05 19:40 | -23.08683 | -43.16673 | 21950 ft | 425 kts | 218° |
| 2026-05-05 19:40 | -23.10991 | -43.18696 | 22701 ft | 428 kts | 217° |
| 2026-05-05 19:41 | -23.13324 | -43.20741 | 23437 ft | 432 kts | 217° |
| 2026-05-05 19:41 | -23.15673 | -43.22799 | 24089 ft | 436 kts | 218° |
| 2026-05-05 19:41 | -23.18041 | -43.24875 | 24727 ft | 438 kts | 218° |
| 2026-05-05 19:41 | -23.20417 | -43.26961 | 25392 ft | 440 kts | 218° |
| 2026-05-05 19:42 | -23.22812 | -43.29062 | 26032 ft | 443 kts | 218° |
| 2026-05-05 19:42 | -23.25217 | -43.31175 | 26654 ft | 446 kts | 218° |
| 2026-05-05 19:42 | -23.27606 | -43.33274 | 27236 ft | 449 kts | 219° |
| 2026-05-05 19:42 | -23.30051 | -43.35423 | 27837 ft | 451 kts | 219° |
| 2026-05-05 19:43 | -23.32508 | -43.37583 | 28408 ft | 455 kts | 219° |
| 2026-05-05 19:43 | -23.34980 | -43.39747 | 29011 ft | 456 kts | 219° |
| 2026-05-05 19:43 | -23.37475 | -43.41894 | 29590 ft | 459 kts | 218° |
| 2026-05-05 19:43 | -23.39996 | -43.44047 | 30091 ft | 461 kts | 218° |
| 2026-05-05 19:44 | -23.42497 | -43.46181 | 30499 ft | 464 kts | 218° |
| 2026-05-05 19:44 | -23.45047 | -43.48361 | 30942 ft | 465 kts | 219° |
| 2026-05-05 19:44 | -23.47584 | -43.50535 | 31490 ft | 462 kts | 219° |
| 2026-05-05 19:44 | -23.50099 | -43.52694 | 32096 ft | 459 kts | 219° |
| 2026-05-05 19:45 | -23.52604 | -43.54847 | 32692 ft | 456 kts | 219° |
| 2026-05-05 19:45 | -23.55082 | -43.56979 | 33265 ft | 453 kts | 219° |
| 2026-05-05 19:45 | -23.57556 | -43.59109 | 33759 ft | 452 kts | 219° |
| 2026-05-05 19:45 | -23.60024 | -43.61234 | 34219 ft | 452 kts | 219° |
| 2026-05-05 19:46 | -23.62484 | -43.63353 | 34635 ft | 450 kts | 219° |
| 2026-05-05 19:46 | -23.64859 | -43.65555 | 35126 ft | 446 kts | 223° |
| 2026-05-05 19:46 | -23.67088 | -43.67893 | 35581 ft | 444 kts | 225° |
| 2026-05-05 19:46 | -23.69229 | -43.70256 | 35954 ft | 443 kts | 225° |
| 2026-05-05 19:47 | -23.71382 | -43.72655 | 36318 ft | 442 kts | 225° |
| 2026-05-05 19:47 | -23.73542 | -43.75042 | 36695 ft | 441 kts | 225° |
| 2026-05-05 19:47 | -23.75708 | -43.77409 | 37081 ft | 439 kts | 225° |
| 2026-05-05 19:47 | -23.77873 | -43.79754 | 37454 ft | 438 kts | 225° |
| 2026-05-05 19:48 | -23.80038 | -43.82086 | 37818 ft | 436 kts | 224° |
| 2026-05-05 19:48 | -23.82199 | -43.84408 | 38108 ft | 437 kts | 224° |
| 2026-05-05 19:48 | -23.84373 | -43.86746 | 38129 ft | 440 kts | 224° |
| 2026-05-05 19:49 | -23.88738 | -43.91442 | 38152 ft | 437 kts | 224° |
| 2026-05-05 19:49 | -23.93010 | -43.96047 | 38157 ft | 432 kts | 224° |
| 2026-05-05 19:50 | -23.97149 | -44.00514 | 38153 ft | 431 kts | 224° |
| 2026-05-05 19:50 | -24.01402 | -44.05107 | 38170 ft | 430 kts | 224° |
| 2026-05-05 19:51 | -24.05674 | -44.09725 | 38158 ft | 431 kts | 225° |
| 2026-05-05 19:51 | -24.09920 | -44.14323 | 38155 ft | 432 kts | 225° |
| 2026-05-05 19:52 | -24.13471 | -44.18171 | 38153 ft | 432 kts | 225° |
| 2026-05-05 19:52 | -24.17749 | -44.22812 | 38148 ft | 433 kts | 225° |
| 2026-05-05 19:53 | -24.22028 | -44.27459 | 38152 ft | 433 kts | 225° |
| 2026-05-05 19:53 | -24.26306 | -44.32109 | 38172 ft | 433 kts | 225° |
| 2026-05-05 19:54 | -24.30588 | -44.36769 | 38157 ft | 433 kts | 225° |
| 2026-05-05 19:54 | -24.34868 | -44.41431 | 38170 ft | 433 kts | 225° |
| 2026-05-05 19:55 | -24.39114 | -44.46061 | 38158 ft | 433 kts | 225° |
| 2026-05-05 19:55 | -24.43379 | -44.50717 | 38159 ft | 432 kts | 225° |
| 2026-05-05 19:56 | -24.47631 | -44.55363 | 38157 ft | 431 kts | 225° |
| 2026-05-05 19:56 | -24.51872 | -44.60026 | 38168 ft | 431 kts | 225° |
| 2026-05-05 19:57 | -24.56072 | -44.64720 | 38155 ft | 430 kts | 225° |
| 2026-05-05 19:57 | -24.60261 | -44.69414 | 38157 ft | 430 kts | 225° |
| 2026-05-05 19:58 | -24.64451 | -44.74107 | 38158 ft | 430 kts | 225° |
| 2026-05-05 19:58 | -24.68636 | -44.78794 | 38166 ft | 430 kts | 226° |
| 2026-05-05 19:59 | -24.72797 | -44.83458 | 38152 ft | 429 kts | 225° |
| 2026-05-05 19:59 | -24.76981 | -44.88152 | 38157 ft | 429 kts | 226° |
| 2026-05-05 20:00 | -24.81160 | -44.92847 | 38156 ft | 429 kts | 225° |
| 2026-05-05 20:00 | -24.85342 | -44.97549 | 38164 ft | 429 kts | 226° |
| 2026-05-05 20:01 | -24.89401 | -45.02117 | 38162 ft | 429 kts | 226° |
| 2026-05-05 20:01 | -24.93579 | -45.06825 | 38159 ft | 430 kts | 226° |
| 2026-05-05 20:02 | -24.97753 | -45.11532 | 38157 ft | 430 kts | 226° |
| 2026-05-05 20:02 | -25.01940 | -45.16260 | 38159 ft | 430 kts | 226° |
| 2026-05-05 20:03 | -25.06116 | -45.20979 | 38157 ft | 430 kts | 226° |
| 2026-05-05 20:03 | -25.10270 | -45.25679 | 38157 ft | 430 kts | 226° |
| 2026-05-05 20:04 | -25.14456 | -45.30420 | 38166 ft | 430 kts | 226° |
| 2026-05-05 20:04 | -25.18601 | -45.35119 | 38159 ft | 430 kts | 226° |
| 2026-05-05 20:05 | -25.22775 | -45.39856 | 38152 ft | 430 kts | 226° |
| 2026-05-05 20:05 | -25.26949 | -45.44598 | 38158 ft | 430 kts | 226° |
| 2026-05-05 20:06 | -25.31117 | -45.49338 | 38160 ft | 430 kts | 226° |
| 2026-05-05 20:06 | -25.35286 | -45.54086 | 38158 ft | 430 kts | 226° |
| 2026-05-05 20:07 | -25.39425 | -45.58802 | 38161 ft | 430 kts | 226° |
| 2026-05-05 20:07 | -25.43593 | -45.63558 | 38160 ft | 430 kts | 226° |
| 2026-05-05 20:08 | -25.47754 | -45.68310 | 38158 ft | 429 kts | 226° |
| 2026-05-05 20:08 | -25.51910 | -45.73063 | 38167 ft | 429 kts | 226° |
| 2026-05-05 20:09 | -25.56065 | -45.77819 | 38163 ft | 430 kts | 226° |
| 2026-05-05 20:09 | -25.60223 | -45.82584 | 38157 ft | 430 kts | 226° |
| 2026-05-05 20:10 | -25.64357 | -45.87326 | 38157 ft | 429 kts | 226° |
| 2026-05-05 20:10 | -25.68507 | -45.92090 | 38154 ft | 429 kts | 226° |
| 2026-05-05 20:11 | -25.72657 | -45.96859 | 38152 ft | 429 kts | 226° |
| 2026-05-05 20:11 | -25.76726 | -46.01541 | 38156 ft | 429 kts | 226° |
| 2026-05-05 20:12 | -25.80840 | -46.06282 | 38152 ft | 429 kts | 226° |
| 2026-05-05 20:12 | -25.84973 | -46.11048 | 38156 ft | 428 kts | 226° |
| 2026-05-05 20:13 | -25.89108 | -46.15822 | 38156 ft | 428 kts | 226° |
| 2026-05-05 20:13 | -25.93234 | -46.20592 | 38156 ft | 428 kts | 226° |
| 2026-05-05 20:14 | -25.97363 | -46.25370 | 38152 ft | 428 kts | 226° |
| 2026-05-05 20:14 | -26.01476 | -46.30135 | 38153 ft | 428 kts | 226° |
| 2026-05-05 20:15 | -26.05597 | -46.34913 | 38153 ft | 427 kts | 226° |
| 2026-05-05 20:15 | -26.09708 | -46.39686 | 38151 ft | 427 kts | 226° |
| 2026-05-05 20:16 | -26.13816 | -46.44461 | 38152 ft | 427 kts | 226° |
| 2026-05-05 20:16 | -26.17919 | -46.49234 | 38150 ft | 427 kts | 226° |
| 2026-05-05 20:17 | -26.22002 | -46.53990 | 38143 ft | 427 kts | 226° |
| 2026-05-05 20:17 | -26.26101 | -46.58770 | 38144 ft | 426 kts | 226° |
| 2026-05-05 20:18 | -26.30202 | -46.63557 | 38147 ft | 426 kts | 226° |
| 2026-05-05 20:18 | -26.34300 | -46.68346 | 38157 ft | 426 kts | 226° |
| 2026-05-05 20:19 | -26.38395 | -46.73137 | 38142 ft | 426 kts | 226° |
| 2026-05-05 20:19 | -26.42467 | -46.77903 | 38147 ft | 426 kts | 226° |
| 2026-05-05 20:20 | -26.46564 | -46.82700 | 38141 ft | 426 kts | 227° |
| 2026-05-05 20:20 | -26.50654 | -46.87497 | 38140 ft | 426 kts | 227° |
| 2026-05-05 20:21 | -26.54741 | -46.92297 | 38143 ft | 426 kts | 227° |
| 2026-05-05 20:21 | -26.58833 | -46.97107 | 38148 ft | 426 kts | 227° |
| 2026-05-05 20:22 | -26.62818 | -47.01827 | 38139 ft | 426 kts | 227° |
| 2026-05-05 20:22 | -26.66840 | -47.06653 | 38140 ft | 426 kts | 227° |
| 2026-05-05 20:23 | -26.70881 | -47.11497 | 38151 ft | 426 kts | 227° |
| 2026-05-05 20:23 | -26.74928 | -47.16328 | 38142 ft | 426 kts | 227° |
| 2026-05-05 20:24 | -26.78999 | -47.21154 | 38137 ft | 425 kts | 227° |
| 2026-05-05 20:24 | -26.83030 | -47.25944 | 38139 ft | 425 kts | 227° |
| 2026-05-05 20:25 | -26.87081 | -47.30767 | 38140 ft | 425 kts | 227° |
| 2026-05-05 20:25 | -26.91137 | -47.35608 | 38137 ft | 424 kts | 227° |
| 2026-05-05 20:26 | -26.95167 | -47.40438 | 38136 ft | 424 kts | 227° |
| 2026-05-05 20:26 | -26.99169 | -47.45243 | 38136 ft | 424 kts | 227° |
| 2026-05-05 20:27 | -27.03200 | -47.50086 | 38130 ft | 423 kts | 227° |
| 2026-05-05 20:27 | -27.07217 | -47.54918 | 38133 ft | 423 kts | 227° |
| 2026-05-05 20:28 | -27.11235 | -47.59755 | 38148 ft | 423 kts | 227° |
| 2026-05-05 20:28 | -27.15221 | -47.64560 | 38127 ft | 423 kts | 227° |
| 2026-05-05 20:29 | -27.19232 | -47.69401 | 38133 ft | 423 kts | 227° |
| 2026-05-05 20:29 | -27.23247 | -47.74252 | 38127 ft | 423 kts | 227° |
| 2026-05-05 20:30 | -27.27253 | -47.79098 | 38125 ft | 423 kts | 227° |
| 2026-05-05 20:30 | -27.31236 | -47.83922 | 38122 ft | 423 kts | 228° |
| 2026-05-05 20:31 | -27.35237 | -47.88773 | 38122 ft | 422 kts | 228° |
| 2026-05-05 20:31 | -27.39234 | -47.93624 | 38123 ft | 422 kts | 228° |
| 2026-05-05 20:32 | -27.43212 | -47.98489 | 38121 ft | 422 kts | 228° |
| 2026-05-05 20:32 | -27.47108 | -48.03272 | 38123 ft | 422 kts | 228° |
| 2026-05-05 20:33 | -27.51076 | -48.08147 | 38111 ft | 422 kts | 228° |
| 2026-05-05 20:33 | -27.55042 | -48.13023 | 38114 ft | 422 kts | 228° |
| 2026-05-05 20:34 | -27.59010 | -48.17907 | 38109 ft | 422 kts | 228° |
| 2026-05-05 20:34 | -27.62950 | -48.22761 | 38094 ft | 422 kts | 229° |
| 2026-05-05 20:35 | -27.66910 | -48.27646 | 38098 ft | 422 kts | 229° |
| 2026-05-05 20:35 | -27.70870 | -48.32535 | 38088 ft | 422 kts | 229° |
| 2026-05-05 20:36 | -27.74833 | -48.37429 | 38085 ft | 422 kts | 229° |
| 2026-05-05 20:36 | -27.78796 | -48.42329 | 38088 ft | 422 kts | 229° |
| 2026-05-05 20:37 | -27.82737 | -48.47208 | 38082 ft | 422 kts | 229° |
| 2026-05-05 20:37 | -27.86691 | -48.52111 | 38086 ft | 422 kts | 229° |
| 2026-05-05 20:38 | -27.90645 | -48.57018 | 38103 ft | 422 kts | 229° |
| 2026-05-05 20:38 | -27.93930 | -48.61100 | 38111 ft | 422 kts | 229° |
| 2026-05-05 20:39 | -27.97880 | -48.66014 | 38112 ft | 422 kts | 229° |
| 2026-05-05 20:39 | -28.01830 | -48.70933 | 38106 ft | 422 kts | 229° |
| 2026-05-05 20:40 | -28.05778 | -48.75856 | 38116 ft | 422 kts | 229° |
| 2026-05-05 20:40 | -28.09722 | -48.80780 | 38112 ft | 422 kts | 229° |
| 2026-05-05 20:41 | -28.13661 | -48.85703 | 38101 ft | 421 kts | 229° |
| 2026-05-05 20:41 | -28.17564 | -48.90588 | 38123 ft | 420 kts | 229° |
| 2026-05-05 20:42 | -28.21492 | -48.95509 | 38117 ft | 421 kts | 229° |
| 2026-05-05 20:42 | -28.25329 | -49.00355 | 38105 ft | 421 kts | 229° |
| 2026-05-05 20:43 | -28.29239 | -49.05302 | 38101 ft | 421 kts | 229° |
| 2026-05-05 20:43 | -28.33205 | -49.10196 | 38105 ft | 421 kts | 228° |
| 2026-05-05 20:44 | -28.37177 | -49.15088 | 38111 ft | 421 kts | 229° |
| 2026-05-05 20:44 | -28.41118 | -49.19967 | 38107 ft | 421 kts | 229° |
| 2026-05-05 20:45 | -28.47038 | -49.27314 | 38112 ft | 420 kts | 229° |
| 2026-05-05 20:45 | -28.50981 | -49.32232 | 38108 ft | 420 kts | 229° |
| 2026-05-05 20:46 | -28.54915 | -49.37151 | 38117 ft | 419 kts | 229° |
| 2026-05-05 20:46 | -28.58815 | -49.42032 | 38111 ft | 419 kts | 229° |
| 2026-05-05 20:47 | -28.62734 | -49.46943 | 38114 ft | 419 kts | 229° |
| 2026-05-05 20:47 | -28.66660 | -49.51867 | 38112 ft | 420 kts | 229° |
| 2026-05-05 20:48 | -28.70585 | -49.56796 | 38120 ft | 420 kts | 229° |
| 2026-05-05 20:48 | -28.74512 | -49.61736 | 38135 ft | 421 kts | 229° |
| 2026-05-05 20:49 | -28.78442 | -49.66683 | 38117 ft | 421 kts | 229° |
| 2026-05-05 20:49 | -28.82375 | -49.71641 | 38131 ft | 421 kts | 229° |
| 2026-05-05 20:50 | -28.86280 | -49.76570 | 38133 ft | 421 kts | 230° |
| 2026-05-05 20:50 | -28.90206 | -49.81530 | 38127 ft | 420 kts | 230° |
| 2026-05-05 20:51 | -28.94215 | -49.86386 | 38120 ft | 420 kts | 228° |
| 2026-05-05 20:51 | -28.98271 | -49.91181 | 38116 ft | 419 kts | 228° |
| 2026-05-05 20:52 | -29.02307 | -49.95978 | 38136 ft | 419 kts | 228° |
| 2026-05-05 20:52 | -29.06265 | -50.00705 | 38135 ft | 420 kts | 229° |
| 2026-05-05 20:53 | -29.10303 | -50.05544 | 38129 ft | 421 kts | 229° |
| 2026-05-05 20:53 | -29.14342 | -50.10391 | 38160 ft | 421 kts | 229° |
| 2026-05-05 20:54 | -29.18383 | -50.15246 | 38157 ft | 421 kts | 229° |
| 2026-05-05 20:54 | -29.22402 | -50.20080 | 38142 ft | 420 kts | 229° |
| 2026-05-05 20:55 | -29.26433 | -50.24935 | 38144 ft | 420 kts | 229° |
| 2026-05-05 20:55 | -29.30455 | -50.29785 | 38147 ft | 420 kts | 229° |
| 2026-05-05 20:56 | -29.34478 | -50.34643 | 38141 ft | 419 kts | 229° |
| 2026-05-05 20:56 | -29.38467 | -50.39464 | 38139 ft | 419 kts | 229° |
| 2026-05-05 20:57 | -29.42484 | -50.44327 | 38124 ft | 419 kts | 229° |
| 2026-05-05 20:57 | -29.46495 | -50.49188 | 38133 ft | 420 kts | 229° |
| 2026-05-05 20:58 | -29.50518 | -50.54068 | 38124 ft | 421 kts | 229° |
| 2026-05-05 20:58 | -29.54516 | -50.58968 | 38123 ft | 420 kts | 230° |
| 2026-05-05 20:59 | -29.58437 | -50.63942 | 38095 ft | 420 kts | 231° |
| 2026-05-05 20:59 | -29.62342 | -50.68922 | 38102 ft | 419 kts | 231° |
| 2026-05-05 21:00 | -29.66226 | -50.73866 | 38110 ft | 419 kts | 231° |
| 2026-05-05 21:00 | -29.70132 | -50.78832 | 38105 ft | 419 kts | 231° |
| 2026-05-05 21:01 | -29.74045 | -50.83812 | 38095 ft | 418 kts | 231° |
| 2026-05-05 21:01 | -29.77947 | -50.88785 | 38054 ft | 419 kts | 231° |
| 2026-05-05 21:02 | -29.81829 | -50.93739 | 38076 ft | 419 kts | 231° |
| 2026-05-05 21:02 | -29.85739 | -50.98736 | 38066 ft | 420 kts | 231° |
| 2026-05-05 21:03 | -29.89581 | -51.03650 | 38059 ft | 421 kts | 231° |
| 2026-05-05 21:03 | -29.93503 | -51.08675 | 38060 ft | 421 kts | 231° |
| 2026-05-05 21:04 | -29.97313 | -51.13752 | 38037 ft | 419 kts | 236° |
| 2026-05-05 21:04 | -30.00330 | -51.19317 | 38038 ft | 418 kts | 242° |
| 2026-05-05 21:05 | -30.02719 | -51.25427 | 38064 ft | 417 kts | 249° |
| 2026-05-05 21:05 | -30.04795 | -51.31629 | 38058 ft | 417 kts | 249° |
| 2026-05-05 21:06 | -30.06880 | -51.37879 | 38049 ft | 417 kts | 249° |
| 2026-05-05 21:06 | -30.08985 | -51.44131 | 38054 ft | 417 kts | 249° |
| 2026-05-05 21:07 | -30.11096 | -51.50378 | 38056 ft | 417 kts | 249° |
| 2026-05-05 21:07 | -30.13207 | -51.56632 | 38058 ft | 418 kts | 249° |
| 2026-05-05 21:08 | -30.15318 | -51.62898 | 38085 ft | 417 kts | 249° |
| 2026-05-05 21:08 | -30.17406 | -51.69108 | 38082 ft | 417 kts | 249° |
| 2026-05-05 21:09 | -30.19503 | -51.75359 | 38091 ft | 417 kts | 249° |
| 2026-05-05 21:09 | -30.21598 | -51.81612 | 38087 ft | 417 kts | 249° |
| 2026-05-05 21:10 | -30.23688 | -51.87864 | 38077 ft | 416 kts | 249° |
| 2026-05-05 21:10 | -30.25773 | -51.94113 | 38076 ft | 416 kts | 249° |
| 2026-05-05 21:11 | -30.27820 | -52.00254 | 38079 ft | 416 kts | 249° |
| 2026-05-05 21:11 | -30.29906 | -52.06500 | 38082 ft | 416 kts | 249° |
| 2026-05-05 21:12 | -30.31991 | -52.12739 | 38082 ft | 415 kts | 249° |
| 2026-05-05 21:12 | -30.34057 | -52.18938 | 38079 ft | 415 kts | 249° |
| 2026-05-05 21:13 | -30.36130 | -52.25172 | 38095 ft | 414 kts | 249° |
| 2026-05-05 21:13 | -30.38199 | -52.31407 | 38083 ft | 414 kts | 249° |
| 2026-05-05 21:14 | -30.40255 | -52.37636 | 38077 ft | 414 kts | 249° |
| 2026-05-05 21:14 | -30.42303 | -52.43852 | 38082 ft | 413 kts | 249° |
| 2026-05-05 21:15 | -30.44349 | -52.50073 | 38081 ft | 413 kts | 249° |
| 2026-05-05 21:15 | -30.46390 | -52.56291 | 38082 ft | 413 kts | 249° |
| 2026-05-05 21:16 | -30.48433 | -52.62523 | 38072 ft | 413 kts | 249° |
| 2026-05-05 21:16 | -30.50462 | -52.68717 | 38070 ft | 414 kts | 249° |
| 2026-05-05 21:17 | -30.52513 | -52.74946 | 38068 ft | 414 kts | 249° |
| 2026-05-05 21:17 | -30.54570 | -52.81196 | 38071 ft | 414 kts | 249° |
| 2026-05-05 21:18 | -30.56624 | -52.87457 | 38066 ft | 416 kts | 249° |
| 2026-05-05 21:18 | -30.58680 | -52.93736 | 38071 ft | 416 kts | 249° |
| 2026-05-05 21:19 | -30.60723 | -52.99990 | 38069 ft | 417 kts | 250° |
| 2026-05-05 21:19 | -30.62740 | -53.06174 | 38064 ft | 416 kts | 250° |
| 2026-05-05 21:20 | -30.64788 | -53.12466 | 38060 ft | 416 kts | 250° |
| 2026-05-05 21:20 | -30.66803 | -53.18764 | 38064 ft | 416 kts | 250° |
| 2026-05-05 21:21 | -30.68800 | -53.25059 | 38069 ft | 415 kts | 250° |
| 2026-05-05 21:21 | -30.70800 | -53.31359 | 38065 ft | 414 kts | 250° |
| 2026-05-05 21:22 | -30.72789 | -53.37628 | 38057 ft | 413 kts | 250° |
| 2026-05-05 21:22 | -30.74823 | -53.43819 | 38061 ft | 411 kts | 249° |
| 2026-05-05 21:23 | -30.76919 | -53.50015 | 38061 ft | 410 kts | 249° |
| 2026-05-05 21:23 | -30.78998 | -53.56185 | 38059 ft | 410 kts | 249° |
| 2026-05-05 21:24 | -30.80722 | -53.61332 | 38058 ft | 410 kts | 249° |
| 2026-05-05 21:24 | -30.83123 | -53.68527 | 38059 ft | 411 kts | 249° |
| 2026-05-05 21:25 | -30.84841 | -53.73689 | 38064 ft | 411 kts | 249° |
| 2026-05-05 21:25 | -30.86906 | -53.79900 | 38060 ft | 411 kts | 250° |
| 2026-05-05 21:26 | -30.88969 | -53.86120 | 38055 ft | 412 kts | 250° |
| 2026-05-05 21:26 | -30.91031 | -53.92343 | 38056 ft | 412 kts | 250° |
| 2026-05-05 21:27 | -30.93087 | -53.98564 | 38059 ft | 412 kts | 250° |
| 2026-05-05 21:27 | -30.95042 | -54.04488 | 38057 ft | 412 kts | 250° |
| 2026-05-05 21:28 | -30.97165 | -54.10689 | 38050 ft | 413 kts | 245° |
| 2026-05-05 21:28 | -31.00245 | -54.16298 | 38056 ft | 416 kts | 236° |
| 2026-05-05 21:29 | -31.04186 | -54.21291 | 38054 ft | 420 kts | 227° |
| 2026-05-05 21:29 | -31.08521 | -54.25896 | 38045 ft | 421 kts | 226° |
| 2026-05-05 21:30 | -31.12853 | -54.30496 | 38037 ft | 420 kts | 227° |
| 2026-05-05 21:30 | -31.17151 | -54.35117 | 38032 ft | 419 kts | 227° |
| 2026-05-05 21:31 | -31.21401 | -54.39715 | 38032 ft | 418 kts | 227° |
| 2026-05-05 21:31 | -31.25668 | -54.44341 | 38031 ft | 418 kts | 227° |
| 2026-05-05 21:32 | -31.29930 | -54.48966 | 38043 ft | 418 kts | 227° |
| 2026-05-05 21:32 | -31.34195 | -54.53602 | 38035 ft | 419 kts | 227° |
| 2026-05-05 21:33 | -31.38470 | -54.58255 | 38031 ft | 420 kts | 227° |
| 2026-05-05 21:33 | -31.42746 | -54.62912 | 38026 ft | 420 kts | 227° |
| 2026-05-05 21:34 | -31.47024 | -54.67549 | 38028 ft | 421 kts | 227° |
| 2026-05-05 21:34 | -31.51357 | -54.72198 | 38028 ft | 422 kts | 227° |
| 2026-05-05 21:35 | -31.55665 | -54.76824 | 38020 ft | 422 kts | 227° |
| 2026-05-05 21:35 | -31.59991 | -54.81482 | 38025 ft | 422 kts | 227° |
| 2026-05-05 21:36 | -31.64320 | -54.86152 | 38037 ft | 423 kts | 227° |
| 2026-05-05 21:36 | -31.68656 | -54.90837 | 38029 ft | 423 kts | 227° |
| 2026-05-05 21:37 | -31.72997 | -54.95534 | 38030 ft | 424 kts | 227° |
| 2026-05-05 21:37 | -31.77239 | -55.00130 | 38026 ft | 424 kts | 227° |
| 2026-05-05 21:38 | -31.81582 | -55.04843 | 38026 ft | 425 kts | 227° |
| 2026-05-05 21:38 | -31.85911 | -55.09545 | 38027 ft | 425 kts | 227° |
| 2026-05-05 21:39 | -31.90263 | -55.14278 | 38027 ft | 426 kts | 227° |
| 2026-05-05 21:39 | -31.94607 | -55.19009 | 38021 ft | 426 kts | 227° |
| 2026-05-05 21:40 | -31.98964 | -55.23762 | 38037 ft | 426 kts | 228° |
| 2026-05-05 21:40 | -32.03303 | -55.28501 | 38002 ft | 426 kts | 228° |
| 2026-05-05 21:41 | -32.07650 | -55.33256 | 38020 ft | 426 kts | 228° |
| 2026-05-05 21:41 | -32.11983 | -55.38000 | 38028 ft | 426 kts | 228° |
| 2026-05-05 21:42 | -32.16329 | -55.42765 | 38022 ft | 426 kts | 228° |
| 2026-05-05 21:42 | -32.20670 | -55.47533 | 38016 ft | 426 kts | 228° |
| 2026-05-05 21:43 | -32.25013 | -55.52308 | 38023 ft | 426 kts | 229° |
| 2026-05-05 21:43 | -32.29358 | -55.57094 | 38021 ft | 427 kts | 229° |
| 2026-05-05 21:44 | -32.33678 | -55.61858 | 38013 ft | 427 kts | 229° |
| 2026-05-05 21:44 | -32.38046 | -55.66681 | 38016 ft | 427 kts | 229° |
| 2026-05-05 21:45 | -32.42354 | -55.71443 | 38016 ft | 426 kts | 229° |
| 2026-05-05 21:45 | -32.46684 | -55.76236 | 38016 ft | 425 kts | 229° |
| 2026-05-05 21:46 | -32.51007 | -55.81030 | 38013 ft | 425 kts | 229° |
| 2026-05-05 21:46 | -32.55315 | -55.85814 | 38016 ft | 424 kts | 229° |
| 2026-05-05 21:47 | -32.59604 | -55.90583 | 38009 ft | 424 kts | 229° |
| 2026-05-05 21:47 | -32.63909 | -55.95376 | 38022 ft | 424 kts | 229° |
| 2026-05-05 21:48 | -32.68159 | -56.00116 | 38020 ft | 426 kts | 229° |
| 2026-05-05 21:48 | -32.72480 | -56.04941 | 38021 ft | 429 kts | 229° |
| 2026-05-05 21:49 | -32.76803 | -56.09775 | 38019 ft | 431 kts | 229° |
| 2026-05-05 21:49 | -32.81179 | -56.14674 | 38021 ft | 432 kts | 229° |
| 2026-05-05 21:50 | -32.85557 | -56.19582 | 38015 ft | 433 kts | 229° |
| 2026-05-05 21:50 | -32.89944 | -56.24507 | 38013 ft | 433 kts | 229° |
| 2026-05-05 21:51 | -32.94323 | -56.29432 | 38017 ft | 432 kts | 229° |
| 2026-05-05 21:51 | -32.98663 | -56.34318 | 38019 ft | 432 kts | 229° |
| 2026-05-05 21:52 | -33.05192 | -56.41721 | 38015 ft | 433 kts | 229° |
| 2026-05-05 21:53 | -33.09559 | -56.46686 | 38007 ft | 434 kts | 229° |
| 2026-05-05 21:53 | -33.13925 | -56.51655 | 38004 ft | 434 kts | 229° |
| 2026-05-05 21:54 | -33.18299 | -56.56637 | 38003 ft | 434 kts | 229° |
| 2026-05-05 21:54 | -33.22679 | -56.61630 | 37996 ft | 435 kts | 229° |
| 2026-05-05 21:55 | -33.27060 | -56.66633 | 38000 ft | 437 kts | 229° |
| 2026-05-05 21:55 | -33.31431 | -56.71631 | 38000 ft | 438 kts | 229° |
| 2026-05-05 21:56 | -33.35848 | -56.76689 | 38006 ft | 439 kts | 229° |
| 2026-05-05 21:56 | -33.40263 | -56.81754 | 37999 ft | 440 kts | 229° |
| 2026-05-05 21:57 | -33.44677 | -56.86822 | 37996 ft | 439 kts | 229° |
| 2026-05-05 21:57 | -33.49067 | -56.91871 | 37992 ft | 436 kts | 229° |
| 2026-05-05 21:58 | -33.53405 | -56.96868 | 37984 ft | 433 kts | 229° |
| 2026-05-05 21:58 | -33.57659 | -57.01776 | 37985 ft | 431 kts | 229° |
| 2026-05-05 21:59 | -33.61975 | -57.06765 | 37988 ft | 430 kts | 229° |
| 2026-05-05 21:59 | -33.66284 | -57.11752 | 38005 ft | 430 kts | 229° |
| 2026-05-05 22:00 | -33.70586 | -57.16737 | 37990 ft | 430 kts | 229° |
| 2026-05-05 22:00 | -33.74879 | -57.21720 | 37982 ft | 428 kts | 229° |
| 2026-05-05 22:01 | -33.79137 | -57.26671 | 37988 ft | 428 kts | 229° |
| 2026-05-05 22:01 | -33.83359 | -57.31581 | 37550 ft | 418 kts | 229° |
| 2026-05-05 22:01 | -33.85438 | -57.34005 | 36994 ft | 415 kts | 229° |
| 2026-05-05 22:02 | -33.87502 | -57.36412 | 36526 ft | 411 kts | 229° |
| 2026-05-05 22:02 | -33.89546 | -57.38797 | 36023 ft | 408 kts | 229° |
| 2026-05-05 22:02 | -33.91580 | -57.41170 | 35513 ft | 405 kts | 229° |
| 2026-05-05 22:02 | -33.93600 | -57.43528 | 35018 ft | 403 kts | 229° |
| 2026-05-05 22:03 | -33.95607 | -57.45874 | 34516 ft | 401 kts | 229° |
| 2026-05-05 22:03 | -33.97608 | -57.48214 | 34029 ft | 400 kts | 229° |
| 2026-05-05 22:03 | -33.99603 | -57.50549 | 33457 ft | 398 kts | 229° |
| 2026-05-05 22:03 | -34.01571 | -57.52855 | 32940 ft | 396 kts | 229° |
| 2026-05-05 22:04 | -34.03525 | -57.55144 | 32468 ft | 394 kts | 229° |
| 2026-05-05 22:04 | -34.05482 | -57.57440 | 31964 ft | 392 kts | 229° |
| 2026-05-05 22:04 | -34.07432 | -57.59729 | 31465 ft | 389 kts | 229° |
| 2026-05-05 22:04 | -34.09366 | -57.62001 | 30982 ft | 387 kts | 229° |
| 2026-05-05 22:05 | -34.11295 | -57.64269 | 30499 ft | 386 kts | 229° |
| 2026-05-05 22:05 | -34.13214 | -57.66526 | 30018 ft | 384 kts | 228° |
| 2026-05-05 22:05 | -34.15125 | -57.68776 | 29458 ft | 383 kts | 228° |
| 2026-05-05 22:05 | -34.17032 | -57.71022 | 28931 ft | 381 kts | 228° |
| 2026-05-05 22:06 | -34.18923 | -57.73251 | 28429 ft | 379 kts | 228° |
| 2026-05-05 22:06 | -34.20807 | -57.75473 | 27943 ft | 377 kts | 228° |
| 2026-05-05 22:06 | -34.22662 | -57.77662 | 27465 ft | 375 kts | 228° |
| 2026-05-05 22:06 | -34.24520 | -57.79856 | 26983 ft | 373 kts | 228° |
| 2026-05-05 22:07 | -34.26375 | -57.82048 | 26511 ft | 371 kts | 228° |
| 2026-05-05 22:07 | -34.28218 | -57.84227 | 26033 ft | 370 kts | 228° |
| 2026-05-05 22:07 | -34.30054 | -57.86401 | 25586 ft | 369 kts | 228° |
| 2026-05-05 22:07 | -34.31876 | -57.88559 | 25115 ft | 367 kts | 228° |
| 2026-05-05 22:08 | -34.33701 | -57.90722 | 24659 ft | 367 kts | 228° |
| 2026-05-05 22:08 | -34.35522 | -57.92881 | 24192 ft | 365 kts | 228° |
| 2026-05-05 22:08 | -34.37342 | -57.95040 | 23716 ft | 365 kts | 228° |
| 2026-05-05 22:08 | -34.39152 | -57.97189 | 23198 ft | 364 kts | 228° |
| 2026-05-05 22:09 | -34.40953 | -57.99326 | 22701 ft | 362 kts | 228° |
| 2026-05-05 22:09 | -34.42623 | -58.01346 | 22257 ft | 359 kts | 230° |
| 2026-05-05 22:09 | -34.44330 | -58.03537 | 21788 ft | 356 kts | 231° |
| 2026-05-05 22:09 | -34.45981 | -58.05705 | 21336 ft | 353 kts | 231° |
| 2026-05-05 22:10 | -34.47638 | -58.07889 | 20877 ft | 351 kts | 231° |
| 2026-05-05 22:10 | -34.49278 | -58.10047 | 20447 ft | 349 kts | 231° |
| 2026-05-05 22:10 | -34.50921 | -58.12204 | 20007 ft | 347 kts | 231° |
| 2026-05-05 22:10 | -34.52560 | -58.14350 | 19577 ft | 345 kts | 231° |
| 2026-05-05 22:11 | -34.54188 | -58.16480 | 19135 ft | 344 kts | 231° |
| 2026-05-05 22:11 | -34.55809 | -58.18599 | 18706 ft | 342 kts | 232° |
| 2026-05-05 22:11 | -34.57433 | -58.20723 | 18256 ft | 342 kts | 231° |
| 2026-05-05 22:11 | -34.59044 | -58.22831 | 17766 ft | 340 kts | 231° |
| 2026-05-05 22:12 | -34.60110 | -58.24227 | 17454 ft | 339 kts | 231° |
| 2026-05-05 22:12 | -34.62228 | -58.26999 | 16857 ft | 336 kts | 231° |
| 2026-05-05 22:12 | -34.63304 | -58.28408 | 16549 ft | 335 kts | 231° |
| 2026-05-05 22:12 | -34.64884 | -58.30479 | 16129 ft | 333 kts | 231° |
| 2026-05-05 22:13 | -34.66440 | -58.32519 | 15713 ft | 332 kts | 231° |
| 2026-05-05 22:13 | -34.67957 | -58.34602 | 15266 ft | 324 kts | 238° |
| 2026-05-05 22:13 | -34.68898 | -58.37031 | 14858 ft | 316 kts | 258° |
| 2026-05-05 22:13 | -34.69198 | -58.39659 | 14491 ft | 312 kts | 267° |
| 2026-05-05 22:14 | -34.69300 | -58.42281 | 14174 ft | 308 kts | 269° |
| 2026-05-05 22:14 | -34.69359 | -58.44865 | 13904 ft | 304 kts | 270° |
| 2026-05-05 22:14 | -34.69411 | -58.47408 | 13661 ft | 297 kts | 270° |
| 2026-05-05 22:14 | -34.69453 | -58.49890 | 13485 ft | 291 kts | 270° |
| 2026-05-05 22:15 | -34.69486 | -58.52330 | 13266 ft | 289 kts | 270° |
| 2026-05-05 22:15 | -34.69513 | -58.54809 | 12766 ft | 297 kts | 270° |
| 2026-05-05 22:15 | -34.69531 | -58.57351 | 12269 ft | 303 kts | 270° |
| 2026-05-05 22:15 | -34.69541 | -58.59893 | 11818 ft | 308 kts | 270° |
| 2026-05-05 22:16 | -34.69542 | -58.62461 | 11621 ft | 304 kts | 270° |
| 2026-05-05 22:16 | -34.69537 | -58.64992 | 11555 ft | 295 kts | 270° |
| 2026-05-05 22:16 | -34.69529 | -58.67452 | 11482 ft | 287 kts | 270° |
| 2026-05-05 22:16 | -34.69518 | -58.69846 | 11395 ft | 277 kts | 270° |
| 2026-05-05 22:17 | -34.69504 | -58.72147 | 10854 ft | 270 kts | 270° |
| 2026-05-05 22:17 | -34.69483 | -58.74439 | 10038 ft | 272 kts | 270° |
| 2026-05-05 22:17 | -34.69450 | -58.76750 | 9231 ft | 271 kts | 270° |
| 2026-05-05 22:17 | -34.69422 | -58.79013 | 8660 ft | 266 kts | 270° |
| 2026-05-05 22:18 | -34.69405 | -58.81253 | 8354 ft | 264 kts | 270° |
| 2026-05-05 22:18 | -34.69398 | -58.83480 | 8089 ft | 262 kts | 270° |
| 2026-05-05 22:18 | -34.69400 | -58.85670 | 7869 ft | 257 kts | 270° |
| 2026-05-05 22:18 | -34.69409 | -58.87790 | 7680 ft | 251 kts | 270° |
| 2026-05-05 22:19 | -34.69786 | -58.89832 | 7212 ft | 255 kts | 240° |
| 2026-05-05 22:19 | -34.71114 | -58.91231 | 6627 ft | 260 kts | 206° |
| 2026-05-05 22:19 | -34.72941 | -58.91414 | 5810 ft | 275 kts | 168° |
| 2026-05-05 22:19 | -34.74574 | -58.90223 | 5105 ft | 277 kts | 132° |
| 2026-05-05 22:20 | -34.75605 | -58.88289 | 4514 ft | 270 kts | 116° |
| 2026-05-05 22:20 | -34.76294 | -58.86198 | 4017 ft | 260 kts | 108° |
| 2026-05-05 22:20 | -34.76790 | -58.84172 | 3891 ft | 240 kts | 104° |
| 2026-05-05 22:20 | -34.77172 | -58.82287 | 3749 ft | 219 kts | 102° |
| 2026-05-05 22:21 | -34.77480 | -58.80538 | 3653 ft | 206 kts | 99° |
| 2026-05-05 22:21 | -34.77718 | -58.78841 | 3580 ft | 206 kts | 99° |
| 2026-05-05 22:21 | -34.77996 | -58.77108 | 3507 ft | 211 kts | 101° |
| 2026-05-05 22:21 | -34.78300 | -58.75374 | 3279 ft | 206 kts | 101° |
| 2026-05-05 22:22 | -34.78597 | -58.73719 | 3006 ft | 192 kts | 101° |
| 2026-05-05 22:22 | -34.78870 | -58.72203 | 2782 ft | 176 kts | 101° |
| 2026-05-05 22:22 | -34.79121 | -58.70806 | 2571 ft | 161 kts | 101° |
| 2026-05-05 22:22 | -34.79360 | -58.69508 | 2269 ft | 155 kts | 102° |
| 2026-05-05 22:23 | -34.79580 | -58.68241 | 2064 ft | 150 kts | 100° |
| 2026-05-05 22:23 | -34.79777 | -58.67019 | 1877 ft | 146 kts | 100° |
| 2026-05-05 22:23 | -34.80002 | -58.65811 | 1696 ft | 147 kts | 101° |
| 2026-05-05 22:23 | -34.80227 | -58.64620 | 1461 ft | 146 kts | 101° |
| 2026-05-05 22:24 | -34.80435 | -58.63409 | 1283 ft | 145 kts | 100° |
| 2026-05-05 22:24 | -34.80656 | -58.62227 | 1080 ft | 143 kts | 102° |
| 2026-05-05 22:24 | -34.80876 | -58.61056 | 968 ft | 141 kts | 101° |
| 2026-05-05 22:24 | -34.81086 | -58.59892 | 775 ft | 142 kts | 100° |
| 2026-05-05 22:25 | -34.81302 | -58.58716 | 643 ft | 142 kts | 101° |
| 2026-05-05 22:25 | -34.81515 | -58.57551 | 476 ft | 139 kts | 101° |
| 2026-05-05 22:25 | -34.81718 | -58.56385 | 305 ft | 141 kts | 101° |
| 2026-05-05 22:25 | -34.81925 | -58.55224 | 113 ft | 140 kts | 101° |
| 2026-05-05 22:26 | -34.82115 | -58.54173 | 89 ft | 111 kts | 102° |
| 2026-05-05 22:26 | -34.82245 | -58.53445 | 88 ft | 62 kts | 102° |
| 2026-05-05 22:26 | -34.82328 | -58.52981 | 92 ft | 29 kts | 102° |
| 2026-05-05 22:26 | -34.82273 | -58.52897 | 91 ft | 15 kts | 347° |
| 2026-05-05 22:27 | -34.82202 | -58.52921 | 90 ft | 8 kts | 344° |
| 2026-05-05 22:27 | -34.82110 | -58.52952 | 90 ft | 23 kts | 343° |
| 2026-05-05 22:27 | -34.81995 | -58.53168 | 84 ft | 36 kts | 285° |
| 2026-05-05 22:27 | -34.81944 | -58.53428 | 83 ft | 32 kts | 283° |
| 2026-05-05 22:28 | -34.81869 | -58.53642 | 84 ft | 29 kts | 322° |
| 2026-05-05 22:28 | -34.81728 | -58.53734 | 84 ft | 21 kts | 333° |
| 2026-05-05 22:28 | -34.81682 | -58.53820 | 83 ft | 11 kts | 249° |
| 2026-05-05 22:28 | -34.81658 | -58.53920 | 84 ft | 12 kts | 313° |
| 2026-05-05 22:29 | -34.81621 | -58.53963 | 85 ft | 0 kts | 321° |
| 2026-05-05 22:29 | -34.81609 | -58.53975 | 85 ft | 2 kts | 317° |
| 2026-05-05 22:29 | -34.81604 | -58.53979 | 83 ft | 0 kts | 318° |